Time;durP1;ratioP1;P1;durP2;ratioP2;P2;SDS_P1;SDS_P2;PMS_P1;PMS_P2;Temp;Humidity;BMP_temperature;BMP_pressure;BME280_temperature;BME280_humidity;BME280_pressure;Samples;Min_cycle;Max_cycle;Signal;HPM_P1;HPM_P2
2022/04/12 00:02:06;;;;;;;0.10;0.10;;;4.70;1.00;12.80;88045.00;;;;5052628;28;20194;-71
2022/04/12 00:04:34;;;;;;;0.10;0.10;;;4.70;1.00;12.80;88045.00;;;;5052383;28;20252;-70
2022/04/12 00:07:04;;;;;;;0.10;0.10;;;4.80;1.00;12.80;88045.00;;;;5050748;28;20573;-70
2022/04/12 00:09:32;;;;;;;0.10;0.10;;;4.80;1.00;12.80;88045.00;;;;5052562;28;20726;-70
2022/04/12 00:12:00;;;;;;;0.10;0.10;;;4.60;1.00;12.80;88045.00;;;;5042521;28;20199;-71
2022/04/12 00:14:28;;;;;;;0.03;0.03;;;4.60;1.00;12.80;88045.00;;;;5052661;28;20194;-71
2022/04/12 00:19:38;;;;;;;0.03;0.03;;;4.60;1.00;12.80;88045.00;;;;5051964;28;20234;-71
2022/04/12 00:22:07;;;;;;;0.10;0.10;;;4.60;1.00;12.80;88045.00;;;;5033210;28;20206;-71
2022/04/12 00:24:35;;;;;;;0.08;0.08;;;4.70;1.00;12.80;88045.00;;;;5032887;28;20187;-71
2022/04/12 00:27:04;;;;;;;0.10;0.10;;;4.60;1.00;12.80;88045.00;;;;5032328;28;20233;-70
2022/04/12 00:29:32;;;;;;;0.00;0.00;;;4.50;1.00;12.80;88045.00;;;;5043672;28;20218;-70
2022/04/12 00:32:00;;;;;;;0.00;0.00;;;4.20;1.00;12.80;88045.00;;;;5052587;28;20277;-71
2022/04/12 00:34:28;;;;;;;0.00;0.00;;;4.30;1.00;12.80;88045.00;;;;5046570;28;20252;-70
2022/04/12 00:36:56;;;;;;;0.10;0.10;;;4.10;1.00;12.80;88045.00;;;;5034420;28;20206;-71
2022/04/12 00:39:25;;;;;;;0.10;0.10;;;4.10;1.00;12.80;88045.00;;;;5050427;28;20194;-70
2022/04/12 00:41:53;;;;;;;0.10;0.10;;;4.10;1.00;12.80;88045.00;;;;5052457;28;20206;-72
2022/04/12 00:44:21;;;;;;;0.10;0.10;;;4.20;1.00;12.80;88045.00;;;;5050653;28;20198;-72
2022/04/12 00:46:49;;;;;;;0.10;0.10;;;4.10;1.00;12.80;88045.00;;;;5050513;28;20245;-71
2022/04/12 00:49:17;;;;;;;0.10;0.10;;;4.00;1.00;12.80;88045.00;;;;5035481;28;20191;-71
2022/04/12 00:51:46;;;;;;;0.10;0.10;;;4.10;1.00;12.80;88045.00;;;;5045803;28;20551;-71
2022/04/12 00:54:14;;;;;;;0.10;0.10;;;4.00;1.00;12.80;88045.00;;;;5051785;28;20197;-71
2022/04/12 00:56:44;;;;;;;0.10;0.10;;;4.00;1.00;12.80;88045.00;;;;5050460;28;20208;-71
2022/04/12 00:59:12;;;;;;;0.10;0.10;;;4.00;1.00;12.80;88045.00;;;;5031737;28;20191;-71
2022/04/12 01:01:41;;;;;;;0.00;0.00;;;4.00;1.00;12.80;88045.00;;;;5031644;28;20209;-72
2022/04/12 01:04:09;;;;;;;0.00;0.00;;;4.00;1.00;12.80;88045.00;;;;5038957;28;20194;-70
2022/04/12 01:06:38;;;;;;;0.10;0.10;;;4.10;1.00;12.80;88045.00;;;;5051122;28;20619;-72
2022/04/12 01:09:06;;;;;;;0.10;0.10;;;4.20;1.00;12.80;88045.00;;;;5051171;28;20651;-72
2022/04/12 01:11:35;;;;;;;0.10;0.10;;;4.10;1.00;12.80;88045.00;;;;5050241;28;20277;-71
2022/04/12 01:14:04;;;;;;;0.10;0.10;;;4.20;1.00;12.80;88045.00;;;;5051067;28;20198;-71
2022/04/12 01:16:32;;;;;;;0.10;0.10;;;4.00;1.00;12.80;88045.00;;;;5051079;28;20240;-72
2022/04/12 01:19:00;;;;;;;0.10;0.10;;;4.00;1.00;12.80;88045.00;;;;5051588;28;20195;-72
2022/04/12 01:21:32;;;;;;;0.10;0.10;;;4.00;1.00;12.80;88045.00;;;;5048995;28;20226;-71
2022/04/12 01:24:03;;;;;;;0.10;0.10;;;3.90;1.00;12.80;88045.00;;;;5031428;28;20191;-71
2022/04/12 01:26:32;;;;;;;0.10;0.10;;;3.80;1.00;12.80;88045.00;;;;5030892;28;20219;-71
2022/04/12 01:29:00;;;;;;;0.10;0.10;;;3.60;1.00;12.80;88045.00;;;;5046371;28;20534;-70
2022/04/12 01:31:28;;;;;;;0.10;0.10;;;3.70;1.00;12.80;88045.00;;;;5042011;28;20688;-71
2022/04/12 01:33:57;;;;;;;0.10;0.10;;;3.60;1.00;12.80;88045.00;;;;5039913;28;20202;-70
2022/04/12 01:36:25;;;;;;;0.10;0.10;;;3.60;1.00;12.80;88045.00;;;;5035107;28;20224;-70
2022/04/12 01:38:53;;;;;;;0.10;0.10;;;3.60;1.00;12.80;88045.00;;;;5049237;28;20198;-71
2022/04/12 01:41:22;;;;;;;0.08;0.08;;;3.70;1.00;12.80;88045.00;;;;5051001;28;20226;-70
2022/04/12 01:43:50;;;;;;;0.10;0.10;;;3.70;1.00;12.80;88045.00;;;;5050069;28;20198;-70
2022/04/12 01:46:18;;;;;;;0.10;0.10;;;3.50;1.00;12.80;88045.00;;;;5050897;28;20224;-71
2022/04/12 01:48:47;;;;;;;0.10;0.10;;;3.40;1.00;12.80;88045.00;;;;5050909;28;20228;-71
2022/04/12 01:51:16;;;;;;;0.10;0.10;;;3.60;1.00;12.80;88045.00;;;;5040452;28;20268;-71
2022/04/12 01:53:44;;;;;;;0.10;0.10;;;3.40;1.00;12.80;88045.00;;;;5031751;28;20187;-71
2022/04/12 01:56:12;;;;;;;0.10;0.10;;;3.30;1.00;12.80;88045.00;;;;5042853;28;20214;-70
2022/04/12 01:58:42;;;;;;;0.10;0.10;;;3.40;1.00;12.80;88045.00;;;;5052862;28;20190;-70
2022/04/12 02:01:10;;;;;;;0.08;0.08;;;3.30;1.00;12.80;88045.00;;;;5054830;28;20236;-71
2022/04/12 02:03:38;;;;;;;0.10;0.10;;;3.40;1.00;12.80;88045.00;;;;5054768;28;20248;-69
2022/04/12 02:06:06;;;;;;;0.10;0.10;;;3.60;1.00;12.80;88045.00;;;;5054599;28;20649;-70
2022/04/12 02:08:36;;;;;;;0.10;0.10;;;3.50;1.00;12.80;88045.00;;;;5054683;28;20237;-71
2022/04/12 02:11:04;;;;;;;0.10;0.10;;;3.60;1.00;12.80;88045.00;;;;5053367;28;20218;-70
2022/04/12 02:13:32;;;;;;;0.10;0.10;;;3.60;1.00;12.80;88045.00;;;;5054530;28;20194;-70
2022/04/12 02:16:01;;;;;;;0.00;0.00;;;3.80;1.00;12.80;88045.00;;;;5046410;28;20213;-70
2022/04/12 02:18:29;;;;;;;0.00;0.00;;;3.70;1.00;12.80;88045.00;;;;5037740;28;20277;-70
2022/04/12 02:20:57;;;;;;;0.03;0.03;;;3.60;1.00;12.80;88045.00;;;;5047386;28;20230;-69
2022/04/12 02:23:25;;;;;;;0.00;0.00;;;3.50;1.00;12.80;88045.00;;;;5050488;28;20198;-70
2022/04/12 02:25:53;;;;;;;0.08;0.08;;;3.60;1.00;12.80;88045.00;;;;5039013;28;20462;-70
2022/04/12 02:28:21;;;;;;;0.00;0.00;;;3.70;1.00;12.80;88045.00;;;;5047516;28;20694;-71
2022/04/12 02:30:49;;;;;;;0.10;0.10;;;3.70;1.00;12.80;88045.00;;;;5053181;28;20233;-70
2022/04/12 02:33:18;;;;;;;0.10;0.10;;;3.70;1.00;12.80;88045.00;;;;5035093;28;20253;-71
2022/04/12 02:35:46;;;;;;;0.10;0.10;;;3.70;1.00;12.80;88045.00;;;;5033817;28;20199;-71
2022/04/12 02:38:14;;;;;;;0.10;0.10;;;3.50;1.00;12.80;88045.00;;;;5044976;28;20256;-70
2022/04/12 02:40:42;;;;;;;0.10;0.10;;;3.40;1.00;12.80;88045.00;;;;5069688;28;20218;-70
2022/04/12 02:43:10;;;;;;;0.10;0.10;;;3.50;1.00;12.80;88045.00;;;;5054416;28;20277;-70
2022/04/12 02:45:38;;;;;;;0.10;0.10;;;3.40;1.00;12.80;88045.00;;;;5053670;28;20228;-70
2022/04/12 02:48:08;;;;;;;0.10;0.10;;;3.20;1.00;12.80;88045.00;;;;5053350;28;20702;-71
2022/04/12 02:50:37;;;;;;;0.00;0.00;;;3.20;1.00;12.80;88045.00;;;;5053859;28;20237;-71
2022/04/12 02:53:06;;;;;;;0.10;0.10;;;3.00;1.00;12.80;88045.00;;;;5054265;28;20191;-72
2022/04/12 02:55:34;;;;;;;0.00;0.00;;;3.00;1.00;12.80;88045.00;;;;5051292;28;20213;-71
2022/04/12 02:58:02;;;;;;;0.10;0.10;;;2.90;1.00;12.80;88045.00;;;;5053702;28;20252;-71
2022/04/12 03:00:30;;;;;;;0.10;0.10;;;2.90;1.00;12.80;88045.00;;;;5047470;28;20226;-71
2022/04/12 03:02:58;;;;;;;0.10;0.10;;;2.80;1.00;12.80;88045.00;;;;5033850;28;20599;-71
2022/04/12 03:05:26;;;;;;;0.10;0.10;;;2.80;1.00;12.80;88045.00;;;;5048981;28;20241;-71
2022/04/12 03:07:56;;;;;;;0.10;0.10;;;2.90;1.00;12.80;88045.00;;;;5053317;28;20226;-71
2022/04/12 03:10:24;;;;;;;0.10;0.10;;;3.00;1.00;12.80;88045.00;;;;5052639;28;20267;-71
2022/04/12 03:12:51;;;;;;;0.10;0.10;;;3.00;1.00;12.80;88045.00;;;;5051550;28;20205;-71
2022/04/12 03:15:20;;;;;;;0.10;0.10;;;2.80;1.00;12.80;88045.00;;;;5052795;28;20198;-70
2022/04/12 03:17:48;;;;;;;0.10;0.10;;;3.00;1.00;12.80;88045.00;;;;5045737;28;20206;-70
2022/04/12 03:20:16;;;;;;;0.10;0.10;;;3.10;1.00;12.80;88045.00;;;;5048627;28;20696;-70
2022/04/12 03:22:44;;;;;;;0.05;0.05;;;3.20;1.00;12.80;88045.00;;;;5033333;28;20187;-70
2022/04/12 03:25:13;;;;;;;0.10;0.10;;;3.40;1.00;12.80;88045.00;;;;5039785;28;20264;-70
2022/04/12 03:27:41;;;;;;;0.10;0.10;;;3.50;1.00;12.80;88045.00;;;;5051458;28;20214;-69
2022/04/12 03:30:10;;;;;;;0.10;0.10;;;3.50;1.00;12.80;88045.00;;;;5052037;28;20229;-69
2022/04/12 03:32:38;;;;;;;0.00;0.00;;;3.50;1.00;12.80;88045.00;;;;5044016;28;20205;-70
2022/04/12 03:35:07;;;;;;;0.10;0.10;;;3.40;1.00;12.80;88045.00;;;;5042055;28;20732;-71
2022/04/12 03:37:35;;;;;;;0.10;0.10;;;3.30;1.00;12.80;88045.00;;;;5041600;28;20202;-71
2022/04/12 03:40:05;;;;;;;0.10;0.10;;;3.20;1.00;12.80;88045.00;;;;5045894;28;20264;-71
2022/04/12 03:42:34;;;;;;;0.10;0.10;;;3.30;1.00;12.80;88045.00;;;;5041293;28;20201;-70
2022/04/12 03:45:02;;;;;;;0.10;0.10;;;3.20;1.00;12.80;88045.00;;;;5042364;28;20213;-71
2022/04/12 03:47:30;;;;;;;0.10;0.10;;;3.10;1.00;12.80;88045.00;;;;5043178;28;20248;-70
2022/04/12 03:49:58;;;;;;;0.00;0.00;;;3.10;1.00;12.80;88045.00;;;;5042178;28;20579;-69
2022/04/12 03:52:26;;;;;;;0.00;0.00;;;3.00;1.00;12.80;88045.00;;;;5041052;28;20201;-70
2022/04/12 03:54:54;;;;;;;0.10;0.10;;;2.90;1.00;12.80;88045.00;;;;5045833;28;20199;-69
2022/04/12 03:57:25;;;;;;;0.10;0.10;;;2.80;1.00;12.80;88045.00;;;;5041711;28;20281;-69
2022/04/12 03:59:54;;;;;;;0.10;0.10;;;2.80;1.00;12.80;88045.00;;;;5043373;28;20218;-69
2022/04/12 04:02:22;;;;;;;0.10;0.10;;;2.80;1.00;12.80;88045.00;;;;5042411;28;20198;-69
2022/04/12 04:04:51;;;;;;;0.10;0.10;;;2.80;1.00;12.80;88045.00;;;;5042716;28;20702;-69
2022/04/12 04:07:19;;;;;;;0.10;0.10;;;2.80;1.00;12.80;88045.00;;;;5041017;28;20195;-70
2022/04/12 04:09:47;;;;;;;0.10;0.10;;;2.70;1.00;12.80;88045.00;;;;5042184;28;20269;-69
2022/04/12 04:12:14;;;;;;;0.10;0.10;;;2.80;1.00;12.80;88045.00;;;;5047666;28;20202;-68
2022/04/12 04:14:42;;;;;;;0.10;0.10;;;2.70;1.00;12.80;88045.00;;;;5040684;28;20198;-68
2022/04/12 04:17:12;;;;;;;0.10;0.10;;;2.60;1.00;12.80;88045.00;;;;5042992;28;20493;-70
2022/04/12 04:19:40;;;;;;;0.10;0.10;;;2.60;1.00;12.80;88045.00;;;;5068319;22;20229;-72
2022/04/12 04:22:08;;;;;;;0.10;0.10;;;2.60;1.00;12.80;88045.00;;;;5038037;28;20188;-70
2022/04/12 04:24:36;;;;;;;0.10;0.10;;;2.60;1.00;12.80;88045.00;;;;5044511;28;20202;-70
2022/04/12 04:27:05;;;;;;;0.10;0.10;;;2.80;8.00;12.80;88045.00;;;;5040604;28;20733;-70
2022/04/12 04:29:35;;;;;;;0.10;0.10;;;2.90;1.00;12.80;88045.00;;;;5040770;28;20211;-72
2022/04/12 04:32:04;;;;;;;0.10;0.10;;;3.00;1.00;12.80;88045.00;;;;5032305;28;20187;-70
2022/04/12 04:34:33;;;;;;;0.10;0.10;;;3.10;1.00;12.80;88045.00;;;;5012613;28;20279;-70
2022/04/12 04:37:01;;;;;;;0.10;0.10;;;3.10;1.00;12.80;88045.00;;;;4997307;28;20235;-71
2022/04/12 04:39:29;;;;;;;0.10;0.10;;;2.90;1.00;12.80;88045.00;;;;5018242;28;20657;-71
2022/04/12 04:41:57;;;;;;;0.10;0.10;;;2.60;1.00;12.80;88045.00;;;;5012166;28;20195;-70
2022/04/12 04:44:25;;;;;;;0.10;0.10;;;2.40;1.00;12.80;88045.00;;;;5011465;28;20195;-71
2022/04/12 04:46:53;;;;;;;0.10;0.10;;;2.10;53.20;12.80;88045.00;;;;5012032;28;20256;-71
2022/04/12 04:49:21;;;;;;;0.10;0.10;;;2.10;99.90;12.80;88045.00;;;;5012748;28;20226;-71
2022/04/12 04:51:50;;;;;;;0.20;0.20;;;2.20;99.90;12.80;88045.00;;;;5011383;28;20212;-70
2022/04/12 04:54:18;;;;;;;0.10;0.10;;;2.10;99.90;12.80;88045.00;;;;5014324;28;20594;-70
2022/04/12 04:56:46;;;;;;;0.10;0.10;;;2.10;99.90;12.80;88045.00;;;;5018018;28;20219;-71
2022/04/12 04:59:14;;;;;;;0.10;0.10;;;2.10;99.90;12.80;88045.00;;;;5013289;28;20214;-70
2022/04/12 05:01:42;;;;;;;0.10;0.10;;;2.10;99.90;12.80;88045.00;;;;5010568;28;20219;-70
2022/04/12 05:04:11;;;;;;;0.10;0.10;;;1.90;99.90;12.80;88045.00;;;;5011978;28;20673;-73
2022/04/12 05:06:40;;;;;;;0.10;0.10;;;2.00;99.90;12.80;88045.00;;;;5010871;28;20196;-72
2022/04/12 05:09:11;;;;;;;0.10;0.10;;;2.00;99.90;12.80;88045.00;;;;5004239;28;20224;-71
2022/04/12 05:11:39;;;;;;;0.10;0.10;;;2.20;99.90;12.80;88045.00;;;;4998411;28;20635;-71
2022/04/12 05:14:07;;;;;;;0.10;0.10;;;2.30;99.90;12.80;88045.00;;;;4995363;28;20200;-71
2022/04/12 05:16:35;;;;;;;0.10;0.10;;;2.40;99.90;12.80;88045.00;;;;4993562;28;20196;-71
2022/04/12 05:19:03;;;;;;;0.10;0.10;;;2.50;99.90;12.80;88045.00;;;;4997952;28;20572;-71
2022/04/12 05:21:31;;;;;;;0.10;0.10;;;2.60;99.90;12.80;88045.00;;;;5002747;28;20224;-71
2022/04/12 05:23:59;;;;;;;0.10;0.10;;;2.60;99.90;12.80;88045.00;;;;5014780;28;20188;-70
2022/04/12 05:26:28;;;;;;;0.10;0.10;;;2.70;99.90;12.80;88045.00;;;;5004476;28;20205;-71
2022/04/12 05:28:56;;;;;;;0.10;0.10;;;2.70;99.90;12.80;88045.00;;;;5004561;28;20220;-70
2022/04/12 05:31:24;;;;;;;0.10;0.10;;;2.80;99.90;12.80;88045.00;;;;4999895;28;20626;-70
2022/04/12 05:33:58;;;;;;;0.10;0.10;;;2.90;99.90;12.80;88045.00;;;;5014856;28;20192;-70
2022/04/12 05:36:26;;;;;;;0.10;0.10;;;3.10;99.90;12.80;88045.00;;;;5018418;28;20192;-70
2022/04/12 05:38:54;;;;;;;0.10;0.10;;;3.20;34.10;12.80;88045.00;;;;5012023;28;20218;-70
2022/04/12 05:41:22;;;;;;;0.10;0.10;;;3.20;1.00;12.80;88045.00;;;;5012334;28;20652;-70
2022/04/12 05:43:51;;;;;;;0.10;0.10;;;3.30;1.00;12.80;88045.00;;;;5011766;28;20283;-70
2022/04/12 05:46:19;;;;;;;0.10;0.10;;;3.30;1.00;12.80;88045.00;;;;5012111;28;20482;-70
2022/04/12 05:48:47;;;;;;;0.10;0.10;;;3.40;1.00;12.80;88045.00;;;;5005284;28;20220;-70
2022/04/12 05:51:15;;;;;;;0.10;0.10;;;3.50;1.00;12.80;88045.00;;;;5013139;28;20314;-70
2022/04/12 05:53:43;;;;;;;0.10;0.10;;;3.60;1.00;12.80;88045.00;;;;4996182;28;20291;-70
2022/04/12 05:56:11;;;;;;;0.10;0.10;;;3.60;1.00;12.80;88045.00;;;;4992231;28;20555;-70
2022/04/12 05:58:40;;;;;;;0.10;0.10;;;3.70;1.00;12.80;88045.00;;;;4992099;28;20223;-71
2022/04/12 06:01:11;;;;;;;0.10;0.10;;;3.70;1.00;12.80;88045.00;;;;4992636;28;20223;-69
2022/04/12 06:03:40;;;;;;;0.10;0.10;;;3.80;1.00;12.80;88045.00;;;;4992051;28;20208;-71
2022/04/12 06:06:08;;;;;;;0.10;0.10;;;3.90;1.00;12.80;88045.00;;;;4991772;28;20193;-70
2022/04/12 06:08:37;;;;;;;0.10;0.10;;;3.90;1.00;12.80;88045.00;;;;4991817;28;20192;-70
2022/04/12 06:11:05;;;;;;;0.10;0.10;;;4.10;1.00;12.80;88045.00;;;;4991969;28;20243;-70
2022/04/12 06:13:33;;;;;;;0.10;0.10;;;4.20;1.00;12.80;88045.00;;;;4991953;28;20197;-71
2022/04/12 06:16:06;;;;;;;0.10;0.10;;;4.30;1.00;12.80;88045.00;;;;4992071;28;20564;-71
2022/04/12 06:18:35;;;;;;;0.10;0.10;;;4.40;1.00;12.80;88045.00;;;;4992201;28;20270;-70
2022/04/12 06:21:03;;;;;;;0.10;0.10;;;4.50;1.00;12.80;88045.00;;;;4992179;28;20617;-70
2022/04/12 06:23:34;;;;;;;0.10;0.10;;;4.60;99.90;12.80;88045.00;;;;4992126;28;20324;-69
2022/04/12 06:26:03;;;;;;;0.10;0.10;;;4.70;99.90;12.80;88045.00;;;;4991568;28;20189;-70
2022/04/12 06:28:32;;;;;;;0.03;0.03;;;4.80;99.90;12.80;88045.00;;;;4991795;28;20196;-71
2022/04/12 06:31:00;;;;;;;0.10;0.10;;;4.90;99.90;12.80;88045.00;;;;4992077;28;20212;-70
2022/04/12 06:33:29;;;;;;;0.10;0.10;;;5.10;99.90;12.80;88045.00;;;;4992316;28;20553;-70
2022/04/12 06:35:58;;;;;;;0.10;0.10;;;5.20;97.50;12.80;88045.00;;;;4991721;28;20197;-70
2022/04/12 06:38:32;;;;;;;0.10;0.10;;;5.30;1.00;12.80;88045.00;;;;4991578;28;20192;-70
2022/04/12 06:41:00;;;;;;;0.10;0.10;;;5.50;1.00;12.80;88045.00;;;;4991522;28;20247;-71
2022/04/12 06:43:28;;;;;;;0.00;0.00;;;5.60;99.90;12.80;88045.00;;;;4991897;28;20251;-71
2022/04/12 06:45:57;;;;;;;0.00;0.00;;;5.80;99.90;12.80;88045.00;;;;4994319;28;20200;-70
2022/04/12 06:48:25;;;;;;;0.08;0.08;;;5.90;1.00;12.80;88045.00;;;;4995515;28;20298;-71
2022/04/12 06:50:53;;;;;;;0.05;0.05;;;6.00;1.00;12.80;88045.00;;;;4994923;28;20224;-71
2022/04/12 06:53:23;;;;;;;0.10;0.10;;;6.20;1.00;12.80;88045.00;;;;4993891;28;20286;-71
2022/04/12 06:55:51;;;;;;;0.00;0.00;;;6.40;99.90;12.80;88045.00;;;;4995007;28;20535;-71
2022/04/12 06:58:19;;;;;;;0.05;0.05;;;6.60;72.90;12.80;88045.00;;;;4995657;28;20597;-71
2022/04/12 07:00:47;;;;;;;0.10;0.10;;;6.80;1.00;12.80;88045.00;;;;4994792;28;20632;-71
2022/04/12 07:03:15;;;;;;;0.05;0.05;;;6.90;99.90;12.80;88045.00;;;;4995099;28;20188;-70
2022/04/12 07:05:43;;;;;;;0.10;0.10;;;7.10;1.00;12.80;88045.00;;;;4994913;28;20677;-70
2022/04/12 07:08:12;;;;;;;0.05;0.05;;;7.20;1.00;12.80;88045.00;;;;4995250;28;20231;-70
2022/04/12 07:10:42;;;;;;;0.10;0.10;;;7.50;99.90;12.80;88045.00;;;;4994538;28;20270;-71
2022/04/12 07:13:11;;;;;;;0.10;0.10;;;7.60;1.00;12.80;88045.00;;;;4995118;28;20247;-70
2022/04/12 07:15:39;;;;;;;0.10;0.10;;;7.70;99.90;12.80;88045.00;;;;4994817;28;20204;-69
2022/04/12 07:18:07;;;;;;;0.10;0.10;;;8.00;1.00;12.80;88045.00;;;;4996282;28;20251;-70
2022/04/12 07:20:35;;;;;;;0.10;0.10;;;8.20;99.90;12.80;88045.00;;;;4995294;28;20216;-69
2022/04/12 07:23:03;;;;;;;0.10;0.10;;;8.30;1.00;12.80;88045.00;;;;4994727;28;20201;-69
2022/04/12 07:25:31;;;;;;;0.10;0.10;;;8.50;1.00;12.80;88045.00;;;;4994401;28;20196;-70
2022/04/12 07:28:00;;;;;;;0.10;0.10;;;8.60;99.90;12.80;88045.00;;;;4994487;28;20212;-70
2022/04/12 07:30:29;;;;;;;0.10;0.10;;;8.80;99.90;12.80;88045.00;;;;4994397;28;20235;-70
2022/04/12 07:33:17;;;;;;;0.10;0.10;;;8.90;1.00;12.80;88045.00;;;;4994780;28;20228;-70
2022/04/12 07:35:46;;;;;;;0.10;0.10;;;9.10;1.00;12.80;88045.00;;;;4994126;28;20250;-71
2022/04/12 07:38:14;;;;;;;0.00;0.00;;;9.20;1.00;12.80;88045.00;;;;4994716;28;20197;-71
2022/04/12 07:40:41;;;;;;;0.03;0.03;;;9.40;1.00;12.80;88045.00;;;;4993972;28;20228;-71
2022/04/12 07:43:11;;;;;;;0.03;0.03;;;9.50;99.90;12.80;88045.00;;;;4994501;28;20610;-69
2022/04/12 07:45:39;;;;;;;0.10;0.10;;;9.70;1.00;12.80;88045.00;;;;4993936;28;20251;-71
2022/04/12 07:48:08;;;;;;;0.10;0.10;;;9.90;1.00;12.80;88045.00;;;;4994413;28;20200;-70
2022/04/12 07:50:36;;;;;;;0.10;0.10;;;10.10;1.00;12.80;88045.00;;;;5002849;28;20227;-70
2022/04/12 07:53:04;;;;;;;0.10;0.10;;;10.30;1.00;12.80;88045.00;;;;4996408;28;20196;-69
2022/04/12 07:55:32;;;;;;;0.10;0.10;;;10.40;99.90;12.80;88045.00;;;;5013456;28;20680;-69
2022/04/12 07:58:00;;;;;;;0.10;0.10;;;10.60;99.90;12.80;88045.00;;;;5013657;28;20204;-70
2022/04/12 08:00:29;;;;;;;0.10;0.10;;;10.70;99.90;12.80;88045.00;;;;5013908;28;20215;-70
2022/04/12 08:02:57;;;;;;;0.10;0.10;;;10.90;99.90;12.80;88045.00;;;;5014338;28;20200;-70
2022/04/12 08:05:25;;;;;;;0.10;0.10;;;11.00;99.90;12.80;88045.00;;;;5014052;28;20247;-70
2022/04/12 08:07:53;;;;;;;0.10;0.10;;;11.10;99.90;12.80;88045.00;;;;5013932;28;20196;-70
2022/04/12 08:10:22;;;;;;;0.10;0.10;;;11.20;99.90;12.80;88045.00;;;;5013573;28;20501;-70
2022/04/12 08:12:52;;;;;;;0.10;0.10;;;11.30;99.90;12.80;88045.00;;;;5013304;28;20330;-70
2022/04/12 08:15:20;;;;;;;0.10;0.10;;;11.50;99.90;12.80;88045.00;;;;5013318;28;20192;-70
2022/04/12 08:17:50;;;;;;;0.10;0.10;;;11.70;99.90;12.80;88045.00;;;;5012904;28;20266;-70
2022/04/12 08:20:18;;;;;;;0.10;0.10;;;11.70;99.90;12.80;88045.00;;;;5013046;28;20648;-69
2022/04/12 08:22:46;;;;;;;0.00;0.00;;;11.90;1.00;12.80;88045.00;;;;5013129;28;20573;-70
2022/04/12 08:25:17;;;;;;;0.00;0.00;;;12.10;1.00;12.80;88045.00;;;;5013232;28;20202;-70
2022/04/12 08:27:45;;;;;;;0.10;0.10;;;12.10;1.00;12.80;88045.00;;;;5012880;28;20657;-69
2022/04/12 08:30:13;;;;;;;0.10;0.10;;;12.20;1.00;12.80;88045.00;;;;5012938;28;20254;-70
2022/04/12 08:32:42;;;;;;;0.10;0.10;;;12.30;1.00;12.80;88045.00;;;;5012920;28;20200;-70
2022/04/12 08:35:12;;;;;;;0.10;0.10;;;12.40;1.00;12.80;88045.00;;;;5012952;28;20592;-70
2022/04/12 08:37:40;;;;;;;0.10;0.10;;;12.40;1.00;12.80;88045.00;;;;5012851;28;20242;-70
2022/04/12 08:40:09;;;;;;;0.10;0.10;;;12.40;99.90;12.80;88045.00;;;;5012715;28;20628;-70
2022/04/12 08:42:38;;;;;;;0.10;0.10;;;12.50;1.00;12.80;88045.00;;;;5012496;28;20203;-70
2022/04/12 08:45:08;;;;;;;0.10;0.10;;;12.50;1.00;12.80;88045.00;;;;5004720;28;20204;-71
2022/04/12 08:47:36;;;;;;;0.10;0.10;;;12.60;1.00;12.80;88045.00;;;;4996695;28;20669;-71
2022/04/12 08:50:08;;;;;;;0.10;0.10;;;12.50;1.00;12.80;88045.00;;;;5012812;28;20215;-71
2022/04/12 08:52:38;;;;;;;0.10;0.10;;;12.60;99.90;12.80;88045.00;;;;5017422;28;20208;-71
2022/04/12 08:55:09;;;;;;;0.10;0.10;;;12.60;1.00;12.80;88045.00;;;;5003774;28;20564;-70
2022/04/12 08:57:37;;;;;;;0.10;0.10;;;12.70;1.00;12.80;88045.00;;;;4992523;28;20208;-70
2022/04/12 09:00:07;;;;;;;0.08;0.08;;;12.80;1.00;12.80;88045.00;;;;4992935;28;20228;-71
2022/04/12 09:02:35;;;;;;;0.10;0.10;;;12.90;1.00;12.80;88045.00;;;;5003404;28;20673;-71
2022/04/12 09:05:06;;;;;;;0.10;0.10;;;13.00;1.00;12.80;88045.00;;;;5012411;28;20278;-71
2022/04/12 09:07:47;;;;;;;0.10;0.10;;;13.10;1.00;12.80;88045.00;;;;5012039;28;20202;-70
2022/04/12 09:10:17;;;;;;;0.10;0.10;;;13.30;1.00;12.80;88045.00;;;;5013829;28;20239;-71
2022/04/12 09:12:45;;;;;;;0.10;0.10;;;13.30;8.60;12.80;88045.00;;;;5012875;28;20680;-71
2022/04/12 09:15:15;;;;;;;0.10;0.10;;;13.50;17.50;12.80;88045.00;;;;5012855;28;20194;-71
2022/04/12 09:17:44;;;;;;;0.10;0.10;;;13.70;24.60;12.80;88045.00;;;;5011995;28;20191;-71
2022/04/12 09:20:16;;;;;;;0.00;0.00;;;13.80;58.40;12.80;88045.00;;;;5012769;28;20704;-71
2022/04/12 09:22:47;;;;;;;0.00;0.00;;;13.90;59.50;12.80;88045.00;;;;5012174;28;20278;-71
2022/04/12 09:25:16;;;;;;;0.10;0.10;;;13.90;91.60;12.80;88045.00;;;;5012777;28;20195;-71
2022/04/12 09:27:49;;;;;;;0.10;0.10;;;13.80;92.20;12.80;88045.00;;;;5018082;28;20242;-70
2022/04/12 09:30:18;;;;;;;0.10;0.10;;;13.90;92.50;12.80;88045.00;;;;5012266;28;20254;-70
2022/04/12 09:32:49;;;;;;;0.00;0.00;;;13.90;92.60;12.80;88045.00;;;;5012168;28;20624;-70
2022/04/12 09:35:17;;;;;;;0.10;0.10;;;13.90;92.40;12.80;88045.00;;;;5012219;28;20192;-70
2022/04/12 09:37:46;;;;;;;0.10;0.10;;;14.00;92.60;12.80;88045.00;;;;5026961;28;20664;-70
2022/04/12 09:40:17;;;;;;;0.00;0.00;;;14.20;91.90;12.80;88045.00;;;;5011960;28;20216;-70
2022/04/12 09:42:49;;;;;;;0.10;0.10;;;14.40;92.60;12.80;88045.00;;;;5011612;28;20589;-71
2022/04/12 09:45:19;;;;;;;0.10;0.10;;;14.40;92.50;12.80;88045.00;;;;5011838;28;20565;-71
2022/04/12 09:47:50;;;;;;;0.00;0.00;;;14.50;92.30;12.80;88045.00;;;;5011240;28;20271;-71
2022/04/12 09:50:39;;;;;;;0.00;0.00;;;14.70;92.20;12.80;88045.00;;;;5011606;28;20266;-71
2022/04/12 09:53:11;;;;;;;0.00;0.00;;;14.90;92.40;12.80;88045.00;;;;5011710;28;20279;-70
2022/04/12 09:55:42;;;;;;;0.10;0.10;;;14.90;92.60;12.80;88045.00;;;;5011753;28;20242;-70
2022/04/12 09:58:13;;;;;;;0.00;0.00;;;14.90;92.60;12.80;88045.00;;;;5012370;28;20196;-71
2022/04/12 10:00:43;;;;;;;0.10;0.10;;;15.00;92.40;12.80;88045.00;;;;5011699;28;20203;-72
2022/04/12 10:03:13;;;;;;;0.10;0.10;;;15.20;92.20;12.80;88045.00;;;;5011582;28;20192;-71
2022/04/12 10:05:42;;;;;;;0.10;0.10;;;15.30;90.20;12.80;88045.00;;;;5013058;28;20257;-70
2022/04/12 10:08:13;;;;;;;0.10;0.10;;;15.20;90.10;12.80;88045.00;;;;5014115;28;20187;-70
2022/04/12 10:10:43;;;;;;;0.00;0.00;;;15.30;90.60;12.80;88045.00;;;;5013958;28;20307;-71
2022/04/12 10:13:14;;;;;;;0.00;0.00;;;15.50;90.60;12.80;88045.00;;;;5014553;28;20196;-71
2022/04/12 10:15:43;;;;;;;0.10;0.10;;;15.60;90.70;12.80;88045.00;;;;5014229;28;20188;-71
2022/04/12 10:18:15;;;;;;;0.00;0.00;;;15.60;90.50;12.80;88045.00;;;;5014762;28;20191;-71
2022/04/12 10:20:44;;;;;;;0.00;0.00;;;15.60;90.30;12.80;88045.00;;;;5002967;28;20267;-71
2022/04/12 10:23:21;;;;;;;0.00;0.00;;;15.80;90.20;12.80;88045.00;;;;5004041;28;20220;-71
2022/04/12 10:25:51;;;;;;;0.00;0.00;;;15.90;90.20;12.80;88045.00;;;;5000493;28;20275;-71
2022/04/12 10:28:21;;;;;;;0.08;0.08;;;16.00;90.00;12.80;88045.00;;;;4995773;28;20238;-70
2022/04/12 10:30:49;;;;;;;0.00;0.00;;;15.80;90.30;12.80;88045.00;;;;4995553;28;20218;-70
2022/04/12 10:33:26;;;;;;;0.00;0.00;;;15.70;90.00;12.80;88045.00;;;;4995483;28;20606;-70
2022/04/12 10:36:02;;;;;;;0.00;0.00;;;15.80;90.40;12.80;88045.00;;;;4995694;28;20219;-71
2022/04/12 10:38:44;;;;;;;0.00;0.00;;;15.90;88.70;12.80;88045.00;;;;4995893;28;20242;-71
2022/04/12 10:41:24;;;;;;;0.00;0.00;;;15.90;88.90;12.80;88045.00;;;;4995690;28;20219;-71
2022/04/12 10:43:56;;;;;;;0.00;0.00;;;15.90;89.60;12.80;88045.00;;;;4995455;28;20188;-70
2022/04/12 10:46:28;;;;;;;0.00;0.00;;;16.00;88.60;12.80;88045.00;;;;4998423;28;20195;-71
2022/04/12 10:48:57;;;;;;;0.10;0.10;;;16.10;88.60;12.80;88045.00;;;;4998261;28;20215;-70
2022/04/12 10:51:40;;;;;;;0.00;0.00;;;16.10;87.00;12.80;88045.00;;;;4997476;28;20716;-70
2022/04/12 10:54:29;;;;;;;0.00;0.00;;;16.30;87.10;12.80;88045.00;;;;4997312;28;20196;-70
2022/04/12 10:57:28;;;;;;;0.00;0.00;;;16.40;87.30;12.80;88045.00;;;;5003274;28;20200;-71
2022/04/12 11:00:11;;;;;;;0.00;0.00;;;16.40;86.90;12.80;88045.00;;;;4953967;28;20221;-70
2022/04/12 11:02:43;;;;;;;0.00;0.00;;;16.40;86.30;12.80;88045.00;;;;4990751;28;20290;-70
2022/04/12 11:05:55;;;;;;;0.00;0.00;;;16.40;87.00;12.80;88045.00;;;;4995496;28;20192;-71
2022/04/12 11:08:51;;;;;;;0.05;0.05;;;16.50;86.80;12.80;88045.00;;;;4994317;28;20222;-70
2022/04/12 11:11:36;;;;;;;0.00;0.00;;;16.80;86.50;12.80;88045.00;;;;4994243;28;20231;-70
2022/04/12 11:14:27;;;;;;;0.00;0.00;;;16.70;86.40;12.80;88045.00;;;;5004889;28;20203;-70
2022/04/12 11:16:59;;;;;;;0.00;0.00;;;16.60;85.50;12.80;88045.00;;;;4998556;28;20219;-70
2022/04/12 11:19:28;;;;;;;0.00;0.00;;;16.60;84.00;12.80;88045.00;;;;4997145;28;20185;-71